Terminal Aerodrome Forecast
Issued by NWS Wilmington, OH

Current Version | Previous Version | Text Only | Print | Product List | Glossary Off
Versions: 1 2 3 4 5 6 7 8 9 10 11 12 13 14 15 16 17 18 19 20 21

000
FTUS41 KILN 211037 AAA
TAFCMH
TAF AMD
KCMH 211037Z 2111/2206 20011KT P6SM SCT025 OVC080
      TEMPO 2111/2112 32014G22KT 5SM -SHRA BR BKN025
     FM211200 32011KT P6SM -SHRA SCT025 OVC040
     FM211300 33011KT 5SM -SHRA BR BKN006 OVC012
     FM211700 35011KT P6SM VCSH OVC008
     FM212300 02011KT P6SM OVC010
     FM220400 03012KT 3SM -RA BR OVC010=

USA.gov is the U.S. government's official web portal to all federal, state and local government web resources and services.